Time;durP1;ratioP1;P1;durP2;ratioP2;P2;SDS_P1;SDS_P2;PMS_P1;PMS_P2;Temp;Humidity;BMP_temperature;BMP_pressure;BME280_temperature;BME280_humidity;BME280_pressure;Samples;Min_cycle;Max_cycle;Signal;HPM_P1;HPM_P2
2023/12/31 00:01:12;;;;;;;2.35;0.90;;;;;;;8.56;100.00;97423.72;5033631;28;20050;-78
2023/12/31 00:03:40;;;;;;;4.15;0.90;;;;;;;8.55;100.00;97424.81;5040673;28;20136;-80
2023/12/31 00:06:07;;;;;;;5.80;0.95;;;;;;;8.42;100.00;97404.91;5037830;28;20607;-80
2023/12/31 00:08:34;;;;;;;3.90;0.93;;;;;;;8.52;100.00;97415.44;5037214;28;20037;-78
2023/12/31 00:11:00;;;;;;;1.13;0.63;;;;;;;8.48;100.00;97409.06;5053412;28;20500;-80
2023/12/31 00:13:27;;;;;;;3.13;0.80;;;;;;;8.52;100.00;97407.34;5058315;28;20511;-78
2023/12/31 00:15:54;;;;;;;3.75;0.73;;;;;;;8.54;100.00;97405.13;5050461;28;20136;-78
2023/12/31 00:18:21;;;;;;;3.70;0.90;;;;;;;8.55;100.00;97403.22;5037013;28;20116;-78
2023/12/31 00:20:47;;;;;;;2.20;0.85;;;;;;;8.51;100.00;97399.56;5045678;28;20127;-78
2023/12/31 00:23:14;;;;;;;1.90;0.80;;;;;;;8.51;100.00;97391.47;5050162;28;20175;-77
2023/12/31 00:25:41;;;;;;;2.63;0.90;;;;;;;8.53;100.00;97402.75;5035479;28;20044;-77
2023/12/31 00:28:08;;;;;;;4.32;0.77;;;;;;;8.50;100.00;97396.06;5043566;28;20052;-78
2023/12/31 00:30:35;;;;;;;3.22;0.95;;;;;;;8.45;100.00;97400.78;5050346;28;20041;-78
2023/12/31 00:33:02;;;;;;;7.03;1.00;;;;;;;8.53;100.00;97395.47;5048295;28;20096;-78
2023/12/31 00:35:29;;;;;;;8.95;1.05;;;;;;;8.44;100.00;97393.81;5051295;28;20071;-78
2023/12/31 00:37:56;;;;;;;5.10;0.80;;;;;;;8.54;100.00;97396.25;5041380;28;20049;-78
2023/12/31 00:40:23;;;;;;;3.78;0.75;;;;;;;8.59;100.00;97393.44;5058676;28;20052;-78
2023/12/31 00:42:50;;;;;;;2.53;0.80;;;;;;;8.45;100.00;97382.72;5019057;28;20142;-78
2023/12/31 00:45:17;;;;;;;3.33;0.68;;;;;;;8.47;100.00;97385.88;5032775;28;20037;-78
2023/12/31 00:47:43;;;;;;;3.47;0.70;;;;;;;8.52;100.00;97393.84;4992015;28;20068;-79
2023/12/31 00:50:10;;;;;;;2.22;0.73;;;;;;;8.34;100.00;97394.03;5038742;28;20041;-77
2023/12/31 00:52:37;;;;;;;2.60;0.77;;;;;;;8.39;100.00;97380.44;5034557;28;20132;-79
2023/12/31 00:55:05;;;;;;;5.15;1.85;;;;;;;8.27;100.00;97382.88;5046568;28;20045;-78
2023/12/31 00:57:31;;;;;;;2.05;0.93;;;;;;;8.14;100.00;97381.81;5037367;28;20045;-79
2023/12/31 00:59:58;;;;;;;4.13;1.45;;;;;;;8.12;100.00;97390.22;5052362;28;20041;-78
2023/12/31 01:02:25;;;;;;;5.15;1.75;;;;;;;8.10;100.00;97384.31;5030911;28;20055;-77
2023/12/31 01:04:52;;;;;;;7.00;1.63;;;;;;;7.99;100.00;97377.56;5053023;28;20075;-77
2023/12/31 01:07:19;;;;;;;4.20;1.88;;;;;;;8.00;100.00;97378.38;5043527;28;20057;-78
2023/12/31 01:09:46;;;;;;;6.00;2.17;;;;;;;7.89;100.00;97360.81;5052084;28;20060;-79
2023/12/31 01:12:13;;;;;;;7.47;2.45;;;;;;;7.80;100.00;97365.31;5042124;28;20057;-79
2023/12/31 01:14:40;;;;;;;9.98;2.50;;;;;;;7.59;100.00;97364.97;5043502;28;20069;-80
2023/12/31 01:17:08;;;;;;;5.40;2.05;;;;;;;7.57;100.00;97363.69;5053955;28;20041;-79
2023/12/31 01:19:35;;;;;;;5.55;1.88;;;;;;;7.61;100.00;97356.59;5045812;28;20186;-81
2023/12/31 01:22:02;;;;;;;9.20;1.92;;;;;;;7.55;100.00;97358.59;5021409;28;20029;-78
2023/12/31 01:24:30;;;;;;;6.22;1.50;;;;;;;7.62;100.00;97364.38;5056943;28;20041;-80
2023/12/31 01:26:56;;;;;;;2.63;1.38;;;;;;;7.40;100.00;97351.66;5049810;28;20046;-78
2023/12/31 01:29:23;;;;;;;4.65;1.10;;;;;;;7.49;100.00;97355.22;5054729;28;20053;-81
2023/12/31 01:31:50;;;;;;;5.60;1.40;;;;;;;7.57;100.00;97344.81;5048960;28;20061;-79
2023/12/31 01:34:17;;;;;;;6.78;1.50;;;;;;;7.69;100.00;97345.88;5036997;28;20042;-79
2023/12/31 01:36:44;;;;;;;6.32;1.45;;;;;;;7.75;100.00;97347.38;5037482;28;20056;-81
2023/12/31 01:39:12;;;;;;;5.72;1.20;;;;;;;7.73;100.00;97343.41;5069270;28;20525;-81
2023/12/31 01:41:38;;;;;;;3.17;1.00;;;;;;;7.67;100.00;97348.09;5031531;28;20049;-78
2023/12/31 01:44:07;;;;;;;4.32;0.90;;;;;;;7.53;100.00;97337.38;5068806;28;20124;-79
2023/12/31 01:46:34;;;;;;;4.85;0.82;;;;;;;7.48;100.00;97342.84;5015260;28;20072;-81
2023/12/31 01:49:01;;;;;;;6.47;1.23;;;;;;;7.46;100.00;97334.28;5050321;28;20045;-79
2023/12/31 01:51:30;;;;;;;6.43;1.30;;;;;;;7.44;100.00;97331.09;5052876;28;20059;-79
2023/12/31 01:54:01;;;;;;;4.65;1.13;;;;;;;7.41;100.00;97322.81;5049552;28;20503;-78
2023/12/31 01:56:33;;;;;;;4.60;1.10;;;;;;;7.37;100.00;97322.63;5046946;28;20436;-79
2023/12/31 01:59:02;;;;;;;3.00;0.88;;;;;;;7.32;100.00;97314.66;5032149;28;20572;-80
2023/12/31 02:01:30;;;;;;;2.22;0.80;;;;;;;7.33;100.00;97321.63;5048116;28;20584;-79
2023/12/31 02:03:57;;;;;;;2.15;1.10;;;;;;;7.25;100.00;97306.16;5048522;28;20483;-79
2023/12/31 02:06:26;;;;;;;2.78;1.10;;;;;;;7.23;100.00;97312.94;5047519;28;20049;-79
2023/12/31 02:08:53;;;;;;;2.03;0.80;;;;;;;7.31;100.00;97310.34;5033998;28;20468;-78
2023/12/31 02:11:20;;;;;;;3.30;1.25;;;;;;;7.32;100.00;97297.69;5046299;28;20054;-80
2023/12/31 02:13:46;;;;;;;5.07;1.02;;;;;;;7.29;100.00;97304.47;5043163;28;20033;-80
2023/12/31 02:16:14;;;;;;;2.97;1.00;;;;;;;7.24;100.00;97309.19;5044199;28;20053;-79
2023/12/31 02:18:42;;;;;;;3.60;1.13;;;;;;;7.17;100.00;97292.63;5045070;28;20068;-78
2023/12/31 02:21:12;;;;;;;4.78;0.95;;;;;;;7.06;100.00;97283.97;5056306;28;20049;-78
2023/12/31 02:23:40;;;;;;;4.10;1.10;;;;;;;7.00;100.00;97278.97;5044940;28;20049;-79
2023/12/31 02:26:09;;;;;;;4.32;0.93;;;;;;;7.03;100.00;97287.25;5025039;28;20049;-78
2023/12/31 02:28:36;;;;;;;3.75;1.30;;;;;;;6.96;100.00;97276.13;5048216;28;20038;-77
2023/12/31 02:31:05;;;;;;;4.97;1.40;;;;;;;6.77;100.00;97286.97;5016088;28;20368;-79
2023/12/31 02:33:32;;;;;;;5.35;1.85;;;;;;;6.77;100.00;97251.19;5050668;28;20049;-78
2023/12/31 02:35:59;;;;;;;3.45;1.20;;;;;;;6.85;100.00;97277.41;5047253;28;20108;-79
2023/12/31 02:38:26;;;;;;;4.90;1.25;;;;;;;6.93;100.00;97267.84;5047506;28;20071;-78
2023/12/31 02:40:54;;;;;;;4.78;1.15;;;;;;;6.79;100.00;97257.88;5039048;28;20045;-80
2023/12/31 02:43:21;;;;;;;6.22;1.08;;;;;;;6.84;100.00;97259.66;5044688;28;20320;-78
2023/12/31 02:45:47;;;;;;;5.97;1.50;;;;;;;6.98;100.00;97259.66;5044665;28;20083;-80
2023/12/31 02:48:14;;;;;;;4.20;1.10;;;;;;;6.96;100.00;97249.19;5033825;28;20060;-79
2023/12/31 02:50:41;;;;;;;4.13;1.15;;;;;;;7.01;100.00;97254.47;5050096;28;20251;-80
2023/12/31 02:53:08;;;;;;;4.97;1.00;;;;;;;7.09;100.00;97264.53;5052382;28;20048;-79
2023/12/31 02:55:34;;;;;;;1.77;0.90;;;;;;;7.14;100.00;97260.94;5049242;28;20069;-77
2023/12/31 02:58:04;;;;;;;5.13;1.15;;;;;;;6.97;100.00;97247.31;5064211;28;20049;-77
2023/12/31 03:00:31;;;;;;;2.30;0.82;;;;;;;7.17;100.00;97255.75;5047552;28;20112;-79
2023/12/31 03:02:58;;;;;;;4.03;0.90;;;;;;;7.08;100.00;97244.09;5048445;28;20044;-79
2023/12/31 03:05:25;;;;;;;2.53;1.10;;;;;;;7.11;100.00;97242.69;5039393;28;20049;-78
2023/12/31 03:07:52;;;;;;;3.08;0.80;;;;;;;7.23;100.00;97243.75;5052495;28;20076;-79
2023/12/31 03:10:18;;;;;;;2.22;0.93;;;;;;;7.32;100.00;97241.16;5033286;28;20091;-78
2023/12/31 03:12:45;;;;;;;5.63;1.00;;;;;;;7.31;100.00;97237.66;5031718;28;20037;-80
2023/12/31 03:15:12;;;;;;;4.75;1.02;;;;;;;7.33;100.00;97237.38;5054669;28;20059;-80
2023/12/31 03:17:39;;;;;;;4.85;0.98;;;;;;;7.44;100.00;97234.13;5056477;28;20080;-79
2023/12/31 03:20:06;;;;;;;2.10;0.80;;;;;;;7.46;100.00;97231.94;5076600;28;20053;-78
2023/12/31 03:22:33;;;;;;;2.70;1.15;;;;;;;7.49;100.00;97225.94;5055005;28;20045;-80
2023/12/31 03:25:10;;;;;;;1.63;0.73;;;;;;;7.48;100.00;97224.34;5054050;28;20841;-78
2023/12/31 03:27:37;;;;;;;5.22;0.90;;;;;;;7.51;100.00;97217.53;5010497;28;20048;-78
2023/12/31 03:30:05;;;;;;;3.05;0.80;;;;;;;7.44;100.00;97206.41;5031272;28;20045;-78
2023/12/31 03:32:33;;;;;;;2.83;1.10;;;;;;;7.45;100.00;97213.41;5025268;28;20106;-78
2023/12/31 03:35:00;;;;;;;4.97;1.30;;;;;;;7.43;100.00;97205.59;5053408;28;20114;-79
2023/12/31 03:37:27;;;;;;;4.00;1.10;;;;;;;7.42;100.00;97214.00;5075629;28;20451;-80
2023/12/31 03:39:54;;;;;;;2.05;0.82;;;;;;;7.39;100.00;97199.25;5052128;28;20041;-78
2023/12/31 03:42:22;;;;;;;5.50;0.85;;;;;;;7.42;100.00;97204.03;5062442;28;20580;-79
2023/12/31 03:44:49;;;;;;;3.88;0.85;;;;;;;7.46;100.00;97204.19;5041649;28;20047;-79
2023/12/31 03:47:15;;;;;;;2.83;0.80;;;;;;;7.41;100.00;97199.72;5063891;28;20067;-79
2023/12/31 03:49:42;;;;;;;5.68;1.00;;;;;;;7.40;100.00;97191.97;5046244;28;20045;-79
2023/12/31 03:52:10;;;;;;;2.13;0.75;;;;;;;7.49;100.00;97192.81;5053567;28;20057;-80
2023/12/31 03:54:43;;;;;;;4.20;1.00;;;;;;;7.44;100.00;97187.56;5042837;28;20096;-79
2023/12/31 03:57:10;;;;;;;4.00;1.00;;;;;;;7.43;100.00;97200.22;5060299;28;20053;-79
2023/12/31 03:59:38;;;;;;;6.88;0.90;;;;;;;7.51;100.00;97188.72;5080553;28;20120;-80
2023/12/31 04:02:05;;;;;;;1.92;0.80;;;;;;;7.50;100.00;97189.03;5062718;28;20048;-77
2023/12/31 04:04:32;;;;;;;2.60;0.60;;;;;;;7.42;100.00;97189.75;5044061;28;20060;-82
2023/12/31 04:06:58;;;;;;;2.75;0.90;;;;;;;7.30;100.00;97184.91;5057829;28;20063;-78
2023/12/31 04:09:25;;;;;;;2.00;0.90;;;;;;;7.30;100.00;97194.91;5049723;28;20057;-78
2023/12/31 04:11:52;;;;;;;2.30;0.80;;;;;;;7.22;100.00;97180.28;5057056;28;20048;-80
2023/12/31 04:14:19;;;;;;;3.05;0.70;;;;;;;7.23;100.00;97179.16;5057750;28;20052;-80
2023/12/31 04:16:46;;;;;;;2.03;0.98;;;;;;;7.27;100.00;97182.03;5036786;28;20073;-79
2023/12/31 04:19:14;;;;;;;3.47;1.00;;;;;;;7.11;100.00;97157.38;5063940;28;20064;-78
2023/12/31 04:21:42;;;;;;;5.43;1.10;;;;;;;7.26;100.00;97167.78;5033088;28;20050;-79
2023/12/31 04:24:09;;;;;;;2.63;1.00;;;;;;;7.26;100.00;97170.47;5050335;28;20033;-78
2023/12/31 04:26:36;;;;;;;2.53;1.10;;;;;;;7.31;100.00;97162.28;5044588;28;20103;-79
2023/12/31 04:29:03;;;;;;;2.03;1.15;;;;;;;7.22;100.00;97147.16;5051997;28;20049;-77
2023/12/31 04:31:31;;;;;;;5.15;1.10;;;;;;;7.29;100.00;97142.94;5059437;28;20044;-78
2023/12/31 04:33:58;;;;;;;2.65;1.10;;;;;;;7.20;100.00;97141.31;5054825;28;20129;-78
2023/12/31 04:36:25;;;;;;;3.45;1.13;;;;;;;7.07;100.00;97126.75;5056200;28;20771;-78
2023/12/31 04:38:52;;;;;;;3.00;1.05;;;;;;;7.28;100.00;97132.47;5048690;28;20706;-80
2023/12/31 04:41:21;;;;;;;3.15;1.38;;;;;;;7.22;100.00;97121.06;5046198;28;20492;-78
2023/12/31 04:43:48;;;;;;;2.60;1.10;;;;;;;7.19;100.00;97126.25;5047439;28;20042;-80
2023/12/31 04:46:18;;;;;;;2.38;1.20;;;;;;;7.37;100.00;97128.75;5043477;28;20072;-79
2023/12/31 04:48:44;;;;;;;3.28;1.13;;;;;;;7.35;100.00;97114.00;5042873;28;20050;-79
2023/12/31 04:51:28;;;;;;;3.00;1.00;;;;;;;7.43;100.00;97122.13;5049336;28;20045;-80
2023/12/31 04:53:56;;;;;;;4.82;1.52;;;;;;;7.34;100.00;97118.59;5042294;28;21128;-78
2023/12/31 04:56:24;;;;;;;2.55;1.42;;;;;;;7.29;100.00;97121.41;5044295;28;20903;-79
2023/12/31 04:58:56;;;;;;;3.58;1.10;;;;;;;7.22;100.00;97110.28;5050543;28;20136;-78
2023/12/31 05:01:26;;;;;;;2.20;1.00;;;;;;;7.36;100.00;97108.31;5051198;28;20197;-78
2023/12/31 05:03:53;;;;;;;5.93;1.33;;;;;;;7.21;100.00;97097.13;5039222;28;20328;-79
2023/12/31 05:06:20;;;;;;;2.30;1.05;;;;;;;7.21;100.00;97103.28;5046895;28;20579;-79
2023/12/31 05:08:47;;;;;;;4.38;1.20;;;;;;;7.17;100.00;97098.84;5047913;28;20033;-78
2023/12/31 05:11:14;;;;;;;2.08;1.15;;;;;;;7.16;100.00;97089.97;5044090;28;20041;-79
2023/12/31 05:13:41;;;;;;;3.30;1.25;;;;;;;7.28;100.00;97100.97;5040968;28;20045;-79
2023/12/31 05:16:16;;;;;;;3.47;1.10;;;;;;;7.26;100.00;97095.09;5051159;28;20090;-79
2023/12/31 05:18:46;;;;;;;2.53;1.10;;;;;;;7.28;100.00;97092.09;5048731;28;20045;-80
2023/12/31 05:21:13;;;;;;;2.33;1.00;;;;;;;7.30;100.00;97090.69;5043975;28;20056;-80
2023/12/31 05:23:42;;;;;;;2.38;1.00;;;;;;;7.17;100.00;97080.00;5045846;28;20097;-80
2023/12/31 05:26:09;;;;;;;2.25;1.20;;;;;;;7.20;100.00;97074.78;5046308;28;20048;-80
2023/12/31 05:28:37;;;;;;;2.78;1.17;;;;;;;7.26;100.00;97076.25;5043806;28;20110;-80
2023/12/31 05:31:04;;;;;;;3.53;1.05;;;;;;;7.08;100.00;97061.09;5045201;28;20492;-78
2023/12/31 05:33:31;;;;;;;2.40;1.20;;;;;;;7.09;100.00;97057.31;5045520;28;20043;-78
2023/12/31 05:35:57;;;;;;;3.28;1.30;;;;;;;7.12;100.00;97059.38;5044770;28;20697;-80
2023/12/31 05:38:24;;;;;;;2.72;1.05;;;;;;;7.09;100.00;97057.31;5040227;28;20053;-80
2023/12/31 05:40:51;;;;;;;1.40;0.90;;;;;;;6.95;100.00;97069.22;5044115;28;20120;-80
2023/12/31 05:43:18;;;;;;;2.20;0.85;;;;;;;6.88;100.00;97059.69;5052308;28;20113;-79
2023/12/31 05:45:45;;;;;;;2.67;1.30;;;;;;;6.78;100.00;97067.19;5047351;28;20109;-80
2023/12/31 05:48:13;;;;;;;3.33;1.20;;;;;;;6.66;100.00;97048.09;5055972;28;20055;-82
2023/12/31 05:50:40;;;;;;;3.00;1.35;;;;;;;6.60;100.00;97047.44;5047178;28;20072;-79
2023/12/31 05:53:07;;;;;;;2.65;1.40;;;;;;;6.61;100.00;97042.81;5050418;28;20068;-80
2023/12/31 05:55:33;;;;;;;2.33;1.10;;;;;;;6.65;100.00;97050.00;5049697;28;20067;-82
2023/12/31 05:58:00;;;;;;;1.33;0.93;;;;;;;6.60;100.00;97044.75;5049834;28;20045;-78
2023/12/31 06:00:27;;;;;;;2.70;1.20;;;;;;;6.59;100.00;97045.84;5044316;28;20045;-80
2023/12/31 06:02:54;;;;;;;3.67;1.80;;;;;;;6.60;100.00;97036.69;5043316;28;20041;-79
2023/12/31 06:05:21;;;;;;;4.13;1.48;;;;;;;6.53;100.00;97032.81;5035639;28;20095;-78
2023/12/31 06:07:48;;;;;;;2.60;1.30;;;;;;;6.56;100.00;97021.44;5047056;28;20064;-79
2023/12/31 06:10:15;;;;;;;2.35;1.30;;;;;;;6.48;100.00;97016.81;5043520;28;20041;-79
2023/12/31 06:12:42;;;;;;;4.93;1.10;;;;;;;6.41;100.00;97019.88;5048770;28;20065;-79
2023/12/31 06:15:11;;;;;;;2.53;1.60;;;;;;;6.47;100.00;97020.56;5057182;28;20040;-79
2023/12/31 06:17:39;;;;;;;3.70;1.33;;;;;;;6.38;100.00;97011.63;5069647;28;20060;-78
2023/12/31 06:20:06;;;;;;;2.03;1.05;;;;;;;6.30;100.00;97012.38;5053436;28;20554;-79
2023/12/31 06:22:34;;;;;;;2.63;1.30;;;;;;;6.23;100.00;97004.69;5055471;28;20045;-80
2023/12/31 06:25:01;;;;;;;4.15;1.40;;;;;;;6.22;100.00;97011.97;5051001;28;20049;-80
2023/12/31 06:27:28;;;;;;;4.28;1.60;;;;;;;6.21;100.00;97001.53;5027544;28;20042;-78
2023/12/31 06:29:54;;;;;;;5.50;1.73;;;;;;;6.20;100.00;96991.84;5053945;28;20045;-80
2023/12/31 06:32:21;;;;;;;3.85;1.55;;;;;;;6.11;100.00;96999.88;5047074;28;20042;-79
2023/12/31 06:34:48;;;;;;;4.28;1.80;;;;;;;6.05;100.00;97001.06;5038355;28;20644;-80
2023/12/31 06:37:15;;;;;;;5.80;1.88;;;;;;;6.20;100.00;96997.22;5045928;28;20037;-79
2023/12/31 06:39:43;;;;;;;5.10;1.90;;;;;;;6.28;100.00;97001.91;5055964;28;20067;-79
2023/12/31 06:42:10;;;;;;;6.13;2.08;;;;;;;6.18;100.00;96992.19;5053211;28;20067;-79
2023/12/31 06:44:37;;;;;;;6.78;1.98;;;;;;;6.25;100.00;96995.25;5052910;28;20094;-78
2023/12/31 06:47:04;;;;;;;5.78;1.98;;;;;;;6.32;100.00;96983.28;5053307;28;20041;-78
2023/12/31 06:49:30;;;;;;;3.03;1.83;;;;;;;6.53;100.00;96995.16;5059020;28;20549;-79
2023/12/31 06:51:57;;;;;;;6.50;1.75;;;;;;;6.52;100.00;96991.69;5053779;28;20075;-77
2023/12/31 06:54:24;;;;;;;4.43;2.10;;;;;;;6.52;100.00;96996.25;5038042;28;20042;-79
2023/12/31 06:56:52;;;;;;;5.88;2.15;;;;;;;6.42;100.00;96996.50;5042063;28;20122;-80
2023/12/31 06:59:19;;;;;;;5.43;2.42;;;;;;;6.40;100.00;96980.66;5049487;28;20075;-77
2023/12/31 07:01:46;;;;;;;3.92;1.98;;;;;;;6.45;100.00;96991.31;5046906;28;20612;-79
2023/12/31 07:04:12;;;;;;;6.55;2.60;;;;;;;6.52;100.00;96980.13;5046853;28;20053;-80
2023/12/31 07:06:39;;;;;;;4.15;1.88;;;;;;;6.60;100.00;96980.19;5055741;28;20104;-78
2023/12/31 07:09:06;;;;;;;4.88;2.08;;;;;;;6.61;100.00;96987.16;5050336;28;20453;-76
2023/12/31 07:11:34;;;;;;;8.18;2.15;;;;;;;6.64;100.00;96991.13;5068983;28;20120;-77
2023/12/31 07:14:00;;;;;;;4.32;2.03;;;;;;;6.62;100.00;96983.38;5047207;28;20053;-77
2023/12/31 07:16:27;;;;;;;6.45;2.15;;;;;;;6.63;100.00;96990.31;5047996;28;20049;-77
2023/12/31 07:18:55;;;;;;;3.40;1.83;;;;;;;6.65;100.00;96987.34;5046716;28;20049;-77
2023/12/31 07:21:23;;;;;;;3.53;2.10;;;;;;;6.65;100.00;96987.34;5042290;28;20046;-77
2023/12/31 07:23:50;;;;;;;3.88;2.10;;;;;;;6.59;100.00;96985.88;5043284;28;20060;-78
2023/12/31 07:26:28;;;;;;;5.15;2.13;;;;;;;6.60;100.00;96990.97;5051547;28;20052;-78
2023/12/31 07:28:55;;;;;;;5.15;2.35;;;;;;;6.52;100.00;96982.81;5047706;28;20041;-77
2023/12/31 07:31:37;;;;;;;4.28;2.15;;;;;;;6.51;100.00;96979.31;5046780;28;20569;-77
2023/12/31 07:34:06;;;;;;;4.50;2.85;;;;;;;6.54;100.00;96961.78;5046821;28;20110;-77
2023/12/31 07:36:33;;;;;;;14.68;3.30;;;;;;;6.55;100.00;96963.41;5052948;28;20060;-77
2023/12/31 07:39:00;;;;;;;7.53;2.97;;;;;;;6.52;100.00;96955.94;5051096;28;20064;-77
2023/12/31 07:41:27;;;;;;;4.80;2.55;;;;;;;6.50;100.00;96958.94;5043559;28;20053;-77
2023/12/31 07:43:54;;;;;;;4.97;3.03;;;;;;;6.49;100.00;96943.88;5048698;28;20064;-77
2023/12/31 07:46:22;;;;;;;5.05;3.05;;;;;;;6.58;100.00;96944.72;5047606;28;20057;-79
2023/12/31 07:48:49;;;;;;;5.10;2.70;;;;;;;6.64;100.00;96951.59;5047815;28;20037;-79
2023/12/31 07:51:17;;;;;;;6.60;2.95;;;;;;;6.67;100.00;96932.16;5041235;28;20095;-78
2023/12/31 07:53:44;;;;;;;5.25;2.92;;;;;;;6.64;100.00;96916.63;5040060;28;20053;-79
2023/12/31 07:56:11;;;;;;;6.47;3.15;;;;;;;6.79;100.00;96924.31;5038226;28;20055;-77
2023/12/31 07:58:37;;;;;;;7.43;3.63;;;;;;;6.88;100.00;96924.38;5024445;28;20045;-78
2023/12/31 08:01:04;;;;;;;4.18;2.60;;;;;;;6.82;100.00;96904.88;5036542;28;20041;-77
2023/12/31 08:03:31;;;;;;;10.65;3.95;;;;;;;7.03;100.00;96915.91;5042980;28;20048;-77
2023/12/31 08:05:58;;;;;;;14.38;5.80;;;;;;;7.14;100.00;96916.44;5039663;28;20049;-78
2023/12/31 08:08:25;;;;;;;9.90;3.80;;;;;;;7.29;100.00;96910.63;5051833;28;20050;-77
2023/12/31 08:10:52;;;;;;;24.52;8.07;;;;;;;7.34;100.00;96905.09;5054010;28;20053;-77
2023/12/31 08:13:19;;;;;;;17.13;4.70;;;;;;;7.23;100.00;96906.47;5051818;28;20047;-77
2023/12/31 08:15:46;;;;;;;17.55;4.60;;;;;;;7.36;100.00;96908.28;5045056;28;20045;-79
2023/12/31 08:18:13;;;;;;;20.27;6.88;;;;;;;7.04;100.00;96912.13;5042244;28;20588;-80
2023/12/31 08:20:40;;;;;;;33.40;9.45;;;;;;;7.20;100.00;96909.81;5053166;28;20504;-79
2023/12/31 08:23:08;;;;;;;31.27;8.60;;;;;;;7.36;100.00;96905.56;5042788;28;20535;-78
2023/12/31 08:25:34;;;;;;;30.10;7.57;;;;;;;7.37;100.00;96907.19;5045921;28;20042;-78
2023/12/31 08:28:01;;;;;;;104.07;19.27;;;;;;;7.53;100.00;96906.44;5045431;28;20484;-78
2023/12/31 08:30:28;;;;;;;68.75;14.48;;;;;;;7.61;100.00;96906.78;5044830;28;20041;-79
2023/12/31 08:32:55;;;;;;;86.88;17.75;;;;;;;7.77;100.00;96906.00;5044154;28;20073;-78
2023/12/31 08:35:23;;;;;;;76.80;15.85;;;;;;;7.91;100.00;96895.09;5047337;28;20037;-79
2023/12/31 08:37:50;;;;;;;24.08;7.22;;;;;;;8.04;100.00;96900.34;5049813;28;20400;-78
2023/12/31 08:40:19;;;;;;;45.90;11.77;;;;;;;8.17;100.00;96909.41;5047313;28;20051;-77
2023/12/31 08:42:46;;;;;;;40.30;9.77;;;;;;;8.07;100.00;96901.63;5039654;28;20049;-79
2023/12/31 08:45:13;;;;;;;61.22;15.68;;;;;;;8.23;100.00;96900.03;5043646;28;20583;-78
2023/12/31 08:47:40;;;;;;;46.03;11.38;;;;;;;8.30;100.00;96899.59;5047590;28;20055;-78
2023/12/31 08:50:11;;;;;;;60.35;15.10;;;;;;;8.22;100.00;96890.38;5037942;28;20255;-79
2023/12/31 08:52:40;;;;;;;57.05;15.00;;;;;;;8.39;100.00;96876.13;5040706;28;20106;-79
2023/12/31 08:55:10;;;;;;;61.53;16.90;;;;;;;8.51;100.00;96893.25;5047051;28;20052;-79
2023/12/31 08:57:40;;;;;;;50.35;13.77;;;;;;;8.64;100.00;96880.69;5042269;28;20033;-78
2023/12/31 09:00:09;;;;;;;29.52;9.88;;;;;;;8.79;100.00;96882.88;5044969;28;20045;-78
2023/12/31 09:02:36;;;;;;;15.77;6.03;;;;;;;8.89;100.00;96877.13;5040752;28;20114;-78
2023/12/31 09:05:04;;;;;;;6.45;3.00;;;;;;;9.04;100.00;96870.41;5031820;28;20040;-78
2023/12/31 09:07:34;;;;;;;7.65;2.60;;;;;;;8.96;100.00;96868.50;5023150;28;20072;-77
2023/12/31 09:10:03;;;;;;;5.20;2.33;;;;;;;9.13;100.00;96866.56;5035167;28;20045;-78
2023/12/31 09:12:31;;;;;;;8.40;2.20;;;;;;;9.16;100.00;96862.44;5030151;28;20041;-78
2023/12/31 09:14:58;;;;;;;4.82;2.25;;;;;;;9.19;100.00;96861.75;5024062;28;20052;-77
2023/12/31 09:17:25;;;;;;;4.65;2.30;;;;;;;9.09;100.00;96854.00;5037221;28;20088;-77
2023/12/31 09:19:54;;;;;;;4.78;2.38;;;;;;;9.13;100.00;96861.16;5032261;28;20072;-76
2023/12/31 09:22:21;;;;;;;8.13;2.65;;;;;;;9.24;100.00;96861.56;5045304;28;20048;-77
2023/12/31 09:24:50;;;;;;;5.53;2.25;;;;;;;9.42;100.00;96868.47;5041772;28;20042;-79
2023/12/31 09:27:18;;;;;;;4.10;1.77;;;;;;;9.59;100.00;96865.69;5043352;28;20045;-77
2023/12/31 09:29:46;;;;;;;3.13;1.48;;;;;;;9.80;100.00;96861.13;5048037;28;20041;-79
2023/12/31 09:32:13;;;;;;;2.90;1.40;;;;;;;9.91;100.00;96853.41;5039989;28;20045;-78
2023/12/31 09:34:40;;;;;;;4.30;1.67;;;;;;;10.08;100.00;96847.06;5041408;28;20127;-78
2023/12/31 09:37:07;;;;;;;3.13;1.20;;;;;;;10.00;100.00;96841.41;5040721;28;20082;-78
2023/12/31 09:39:34;;;;;;;2.50;1.13;;;;;;;10.16;100.00;96840.84;5039082;28;20537;-79
2023/12/31 09:42:17;;;;;;;3.08;1.20;;;;;;;10.43;100.00;96837.56;5037699;28;20052;-79
2023/12/31 09:44:46;;;;;;;2.78;1.00;;;;;;;10.32;100.00;96818.25;5026573;28;20094;-78
2023/12/31 09:47:14;;;;;;;1.83;1.00;;;;;;;10.45;100.00;96810.97;5028748;28;20049;-78
2023/12/31 09:49:42;;;;;;;3.72;1.02;;;;;;;10.49;100.00;96801.84;5036144;28;20042;-80
2023/12/31 09:52:09;;;;;;;5.00;1.10;;;;;;;10.43;100.00;96816.69;5032970;28;20418;-80
2023/12/31 09:54:39;;;;;;;3.47;1.30;;;;;;;10.54;100.00;96806.25;5025474;28;20049;-79
2023/12/31 09:57:07;;;;;;;2.00;0.90;;;;;;;10.80;100.00;96803.25;5024300;28;20047;-79
2023/12/31 09:59:41;;;;;;;3.63;1.30;;;;;;;10.93;100.00;96813.78;5018546;28;20168;-80
2023/12/31 10:02:18;;;;;;;3.63;1.00;;;;;;;11.02;100.00;96816.38;5018117;28;20097;-81
2023/12/31 10:04:47;;;;;;;2.40;0.98;;;;;;;10.99;100.00;96812.44;5020397;28;20045;-82
2023/12/31 10:07:14;;;;;;;2.50;0.77;;;;;;;11.10;100.00;96800.00;5031075;28;20060;-79
2023/12/31 10:09:42;;;;;;;1.08;0.68;;;;;;;11.26;98.08;96803.63;5026481;28;20069;-79
2023/12/31 10:12:11;;;;;;;4.68;0.85;;;;;;;11.29;97.27;96802.16;5029286;28;20055;-77
2023/12/31 10:14:37;;;;;;;2.00;0.75;;;;;;;11.41;95.47;96807.56;5027450;28;20041;-78
2023/12/31 10:17:08;;;;;;;1.15;0.77;;;;;;;11.56;94.17;96806.09;5034226;28;20132;-77
2023/12/31 10:19:34;;;;;;;1.27;0.73;;;;;;;11.63;93.93;96792.75;5031268;28;20140;-76
2023/12/31 10:22:05;;;;;;;3.17;0.90;;;;;;;11.55;94.90;96793.66;5037138;28;20056;-76
2023/12/31 10:24:31;;;;;;;1.90;0.80;;;;;;;11.40;94.05;96778.09;5014250;28;20053;-77
2023/12/31 10:27:04;;;;;;;2.13;0.93;;;;;;;11.22;94.39;96767.53;5022367;28;20034;-76
2023/12/31 10:29:35;;;;;;;2.80;0.88;;;;;;;11.41;93.34;96769.63;5023224;28;20633;-77
2023/12/31 10:32:03;;;;;;;2.22;0.70;;;;;;;11.58;91.86;96763.97;5046039;28;20069;-78
2023/12/31 10:34:30;;;;;;;3.60;0.90;;;;;;;11.75;90.88;96766.44;5033573;28;20549;-76
2023/12/31 10:37:05;;;;;;;1.45;0.70;;;;;;;11.85;90.19;96762.44;5035289;28;20681;-76
2023/12/31 10:39:36;;;;;;;1.50;0.80;;;;;;;11.83;89.00;96751.16;5039355;28;20425;-76
2023/12/31 10:42:05;;;;;;;3.67;0.60;;;;;;;12.02;88.12;96756.75;5037320;28;20041;-76
2023/12/31 10:44:36;;;;;;;3.05;0.65;;;;;;;12.06;86.82;96748.69;5035548;28;20049;-77
2023/12/31 10:47:07;;;;;;;1.17;0.60;;;;;;;11.94;84.94;96743.31;5034125;28;20780;-77
2023/12/31 10:49:35;;;;;;;0.93;0.60;;;;;;;12.13;84.74;96735.34;5023693;28;20181;-75
2023/12/31 10:52:05;;;;;;;1.45;0.73;;;;;;;12.22;85.21;96746.81;5052564;28;20044;-78
2023/12/31 10:54:41;;;;;;;1.88;0.60;;;;;;;12.20;83.93;96728.19;5052419;28;20388;-78
2023/12/31 10:57:09;;;;;;;1.10;0.52;;;;;;;12.33;82.34;96724.28;5029344;28;20659;-79
2023/12/31 10:59:38;;;;;;;3.80;0.63;;;;;;;12.37;82.33;96733.28;5067404;28;20529;-75
2023/12/31 11:02:05;;;;;;;1.63;0.70;;;;;;;12.29;82.08;96725.28;5041619;28;20049;-75
2023/12/31 11:04:33;;;;;;;0.95;0.30;;;;;;;12.34;82.41;96725.03;5037709;28;20060;-75
2023/12/31 11:07:03;;;;;;;1.20;0.65;;;;;;;12.54;83.11;96732.19;5031297;28;20045;-76
2023/12/31 11:09:33;;;;;;;1.02;0.65;;;;;;;12.52;82.92;96716.22;5032293;28;20073;-77
2023/12/31 11:12:00;;;;;;;1.25;0.80;;;;;;;12.39;81.77;96705.78;5031716;28;20049;-76
2023/12/31 11:14:31;;;;;;;1.33;0.43;;;;;;;12.49;80.96;96706.06;5040420;28;20041;-76
2023/12/31 11:16:58;;;;;;;1.67;0.70;;;;;;;12.65;81.61;96705.25;5038707;28;20098;-76
2023/12/31 11:19:49;;;;;;;1.63;0.65;;;;;;;12.57;80.63;96696.16;5040613;28;20048;-77
2023/12/31 11:22:36;;;;;;;1.15;0.70;;;;;;;12.61;80.69;96691.63;5035369;28;20071;-76
2023/12/31 11:25:06;;;;;;;1.83;0.52;;;;;;;12.61;81.04;96691.63;5043179;28;20492;-77
2023/12/31 11:27:34;;;;;;;2.08;0.77;;;;;;;12.67;82.34;96679.34;5019812;28;21796;-77
2023/12/31 11:30:02;;;;;;;1.42;0.75;;;;;;;12.75;79.22;96675.66;5042968;28;20535;-75
2023/12/31 11:32:32;;;;;;;1.00;0.60;;;;;;;12.61;77.58;96677.25;5035303;28;20057;-77
2023/12/31 11:35:04;;;;;;;1.33;0.73;;;;;;;12.77;77.87;96670.69;5047851;28;20052;-77